sensor_id;sensor_type;location;lat;lon;timestamp;P1;durP1;ratioP1;P2;durP2;ratioP2
51020;SDS011;38907;45.562;8.856;2022-09-02T00:04:30;2.90;;;1.48;;
51020;SDS011;38907;45.562;8.856;2022-09-02T00:09:32;3.22;;;1.38;;
51020;SDS011;38907;45.562;8.856;2022-09-02T00:14:38;7.28;;;1.70;;
51020;SDS011;38907;45.562;8.856;2022-09-02T00:19:41;4.55;;;1.63;;
51020;SDS011;38907;45.562;8.856;2022-09-02T00:24:43;2.75;;;1.80;;
51020;SDS011;38907;45.562;8.856;2022-09-02T00:29:47;2.05;;;1.35;;
51020;SDS011;38907;45.562;8.856;2022-09-02T00:34:50;3.88;;;1.95;;
51020;SDS011;38907;45.562;8.856;2022-09-02T00:39:52;4.10;;;1.73;;
51020;SDS011;38907;45.562;8.856;2022-09-02T00:44:57;2.75;;;1.73;;
51020;SDS011;38907;45.562;8.856;2022-09-02T00:49:59;2.83;;;1.60;;
51020;SDS011;38907;45.562;8.856;2022-09-02T00:55:05;4.20;;;1.60;;
51020;SDS011;38907;45.562;8.856;2022-09-02T01:00:14;6.80;;;1.88;;
51020;SDS011;38907;45.562;8.856;2022-09-02T01:05:19;3.55;;;1.88;;
51020;SDS011;38907;45.562;8.856;2022-09-02T01:10:24;4.38;;;1.95;;
51020;SDS011;38907;45.562;8.856;2022-09-02T01:15:29;5.75;;;2.15;;
51020;SDS011;38907;45.562;8.856;2022-09-02T01:20:32;2.92;;;1.85;;
51020;SDS011;38907;45.562;8.856;2022-09-02T01:25:36;3.58;;;1.90;;
51020;SDS011;38907;45.562;8.856;2022-09-02T01:30:40;3.03;;;1.75;;
51020;SDS011;38907;45.562;8.856;2022-09-02T01:35:49;11.60;;;2.42;;
51020;SDS011;38907;45.562;8.856;2022-09-02T01:40:53;6.60;;;1.85;;
51020;SDS011;38907;45.562;8.856;2022-09-02T01:45:56;4.10;;;1.80;;
51020;SDS011;38907;45.562;8.856;2022-09-02T01:51:01;5.53;;;2.15;;
51020;SDS011;38907;45.562;8.856;2022-09-02T01:56:06;3.83;;;1.73;;
51020;SDS011;38907;45.562;8.856;2022-09-02T02:01:09;4.25;;;1.95;;
51020;SDS011;38907;45.562;8.856;2022-09-02T02:11:19;4.57;;;2.10;;
51020;SDS011;38907;45.562;8.856;2022-09-02T02:16:23;4.13;;;1.80;;
51020;SDS011;38907;45.562;8.856;2022-09-02T02:21:26;4.75;;;1.90;;
51020;SDS011;38907;45.562;8.856;2022-09-02T02:26:31;7.13;;;1.60;;
51020;SDS011;38907;45.562;8.856;2022-09-02T02:31:33;7.07;;;2.00;;
51020;SDS011;38907;45.562;8.856;2022-09-02T02:41:40;2.55;;;1.70;;
51020;SDS011;38907;45.562;8.856;2022-09-02T02:46:43;3.88;;;1.50;;
51020;SDS011;38907;45.562;8.856;2022-09-02T02:56:49;3.88;;;1.95;;
51020;SDS011;38907;45.562;8.856;2022-09-02T03:01:52;3.40;;;2.40;;
51020;SDS011;38907;45.562;8.856;2022-09-02T03:11:58;3.85;;;1.92;;
51020;SDS011;38907;45.562;8.856;2022-09-02T03:17:01;8.50;;;2.70;;
51020;SDS011;38907;45.562;8.856;2022-09-02T03:22:04;2.47;;;1.95;;
51020;SDS011;38907;45.562;8.856;2022-09-02T03:27:08;3.90;;;2.15;;
51020;SDS011;38907;45.562;8.856;2022-09-02T03:32:11;5.55;;;3.00;;
51020;SDS011;38907;45.562;8.856;2022-09-02T03:37:14;5.57;;;4.05;;
51020;SDS011;38907;45.562;8.856;2022-09-02T03:42:18;4.53;;;3.58;;
51020;SDS011;38907;45.562;8.856;2022-09-02T03:47:20;3.63;;;3.33;;
51020;SDS011;38907;45.562;8.856;2022-09-02T03:57:27;6.72;;;4.05;;
51020;SDS011;38907;45.562;8.856;2022-09-02T04:02:30;10.25;;;4.07;;
51020;SDS011;38907;45.562;8.856;2022-09-02T04:07:32;4.60;;;3.45;;
51020;SDS011;38907;45.562;8.856;2022-09-02T04:12:36;5.95;;;4.15;;
51020;SDS011;38907;45.562;8.856;2022-09-02T04:17:40;7.32;;;3.15;;
51020;SDS011;38907;45.562;8.856;2022-09-02T04:22:42;3.92;;;3.25;;
51020;SDS011;38907;45.562;8.856;2022-09-02T04:27:47;4.40;;;2.80;;
51020;SDS011;38907;45.562;8.856;2022-09-02T04:32:49;4.07;;;3.17;;
51020;SDS011;38907;45.562;8.856;2022-09-02T04:37:52;3.28;;;2.90;;
51020;SDS011;38907;45.562;8.856;2022-09-02T04:42:56;5.55;;;2.83;;
51020;SDS011;38907;45.562;8.856;2022-09-02T04:48:00;5.13;;;3.08;;
51020;SDS011;38907;45.562;8.856;2022-09-02T04:53:03;3.95;;;3.00;;
51020;SDS011;38907;45.562;8.856;2022-09-02T04:58:07;4.88;;;2.75;;
51020;SDS011;38907;45.562;8.856;2022-09-02T05:03:10;2.85;;;2.55;;
51020;SDS011;38907;45.562;8.856;2022-09-02T05:08:13;3.28;;;2.80;;
51020;SDS011;38907;45.562;8.856;2022-09-02T05:18:26;5.53;;;2.90;;
51020;SDS011;38907;45.562;8.856;2022-09-02T05:23:30;5.65;;;2.88;;
51020;SDS011;38907;45.562;8.856;2022-09-02T05:28:34;4.32;;;3.00;;
51020;SDS011;38907;45.562;8.856;2022-09-02T05:33:38;2.83;;;2.60;;
51020;SDS011;38907;45.562;8.856;2022-09-02T05:38:42;3.28;;;2.97;;
51020;SDS011;38907;45.562;8.856;2022-09-02T05:43:45;3.08;;;2.45;;
51020;SDS011;38907;45.562;8.856;2022-09-02T05:48:50;4.35;;;2.83;;
51020;SDS011;38907;45.562;8.856;2022-09-02T05:54:10;5.75;;;3.45;;
51020;SDS011;38907;45.562;8.856;2022-09-02T05:59:18;5.25;;;3.40;;
51020;SDS011;38907;45.562;8.856;2022-09-02T06:04:22;3.45;;;3.15;;
51020;SDS011;38907;45.562;8.856;2022-09-02T06:09:26;4.50;;;3.40;;
51020;SDS011;38907;45.562;8.856;2022-09-02T06:14:28;5.25;;;3.60;;
51020;SDS011;38907;45.562;8.856;2022-09-02T06:19:32;4.90;;;2.70;;
51020;SDS011;38907;45.562;8.856;2022-09-02T06:24:35;4.85;;;2.72;;
51020;SDS011;38907;45.562;8.856;2022-09-02T06:29:37;2.90;;;2.03;;
51020;SDS011;38907;45.562;8.856;2022-09-02T06:39:44;6.47;;;2.60;;
51020;SDS011;38907;45.562;8.856;2022-09-02T06:44:47;3.10;;;2.53;;
51020;SDS011;38907;45.562;8.856;2022-09-02T06:49:51;3.03;;;2.70;;
51020;SDS011;38907;45.562;8.856;2022-09-02T06:54:54;4.32;;;2.90;;
51020;SDS011;38907;45.562;8.856;2022-09-02T06:59:56;7.88;;;3.30;;
51020;SDS011;38907;45.562;8.856;2022-09-02T07:05:00;4.60;;;3.50;;
51020;SDS011;38907;45.562;8.856;2022-09-02T07:10:14;6.50;;;2.83;;
51020;SDS011;38907;45.562;8.856;2022-09-02T07:15:17;4.38;;;2.58;;
51020;SDS011;38907;45.562;8.856;2022-09-02T07:20:21;7.18;;;2.90;;
51020;SDS011;38907;45.562;8.856;2022-09-02T07:25:24;3.90;;;2.40;;
51020;SDS011;38907;45.562;8.856;2022-09-02T07:30:28;3.83;;;2.50;;
51020;SDS011;38907;45.562;8.856;2022-09-02T07:35:32;5.05;;;2.67;;
51020;SDS011;38907;45.562;8.856;2022-09-02T07:40:36;5.90;;;3.15;;
51020;SDS011;38907;45.562;8.856;2022-09-02T07:45:40;3.67;;;2.90;;
51020;SDS011;38907;45.562;8.856;2022-09-02T07:50:45;7.30;;;2.85;;
51020;SDS011;38907;45.562;8.856;2022-09-02T07:55:48;4.72;;;2.70;;
51020;SDS011;38907;45.562;8.856;2022-09-02T08:00:51;4.63;;;2.50;;
51020;SDS011;38907;45.562;8.856;2022-09-02T08:05:56;5.50;;;2.95;;
51020;SDS011;38907;45.562;8.856;2022-09-02T08:11:00;7.68;;;2.80;;
51020;SDS011;38907;45.562;8.856;2022-09-02T08:16:03;4.05;;;3.08;;
51020;SDS011;38907;45.562;8.856;2022-09-02T08:21:07;4.20;;;2.25;;
51020;SDS011;38907;45.562;8.856;2022-09-02T08:26:10;3.58;;;1.70;;
51020;SDS011;38907;45.562;8.856;2022-09-02T08:36:16;3.88;;;2.20;;
51020;SDS011;38907;45.562;8.856;2022-09-02T08:41:20;8.70;;;2.08;;
51020;SDS011;38907;45.562;8.856;2022-09-02T08:46:24;4.40;;;2.45;;
51020;SDS011;38907;45.562;8.856;2022-09-02T08:51:33;3.13;;;2.20;;
51020;SDS011;38907;45.562;8.856;2022-09-02T08:56:38;5.60;;;2.15;;
51020;SDS011;38907;45.562;8.856;2022-09-02T09:01:43;4.03;;;2.15;;
51020;SDS011;38907;45.562;8.856;2022-09-02T09:07:02;11.05;;;2.50;;
51020;SDS011;38907;45.562;8.856;2022-09-02T09:12:21;5.85;;;2.28;;
51020;SDS011;38907;45.562;8.856;2022-09-02T09:17:36;2.40;;;2.00;;
51020;SDS011;38907;45.562;8.856;2022-09-02T09:22:46;6.00;;;2.10;;
51020;SDS011;38907;45.562;8.856;2022-09-02T09:27:51;6.63;;;2.60;;
51020;SDS011;38907;45.562;8.856;2022-09-02T09:32:54;3.05;;;2.20;;
51020;SDS011;38907;45.562;8.856;2022-09-02T09:38:01;3.28;;;1.67;;
51020;SDS011;38907;45.562;8.856;2022-09-02T09:43:16;4.35;;;1.88;;
51020;SDS011;38907;45.562;8.856;2022-09-02T09:48:20;3.78;;;2.08;;
51020;SDS011;38907;45.562;8.856;2022-09-02T09:53:29;3.92;;;2.30;;
51020;SDS011;38907;45.562;8.856;2022-09-02T09:58:33;9.82;;;2.33;;
51020;SDS011;38907;45.562;8.856;2022-09-02T10:03:47;3.97;;;2.40;;
51020;SDS011;38907;45.562;8.856;2022-09-02T10:08:54;8.93;;;2.30;;
51020;SDS011;38907;45.562;8.856;2022-09-02T10:13:59;4.72;;;2.45;;
51020;SDS011;38907;45.562;8.856;2022-09-02T10:19:05;4.93;;;2.25;;
51020;SDS011;38907;45.562;8.856;2022-09-02T10:24:21;6.90;;;2.30;;
51020;SDS011;38907;45.562;8.856;2022-09-02T10:29:40;2.95;;;2.25;;
51020;SDS011;38907;45.562;8.856;2022-09-02T10:34:57;6.60;;;2.28;;
51020;SDS011;38907;45.562;8.856;2022-09-02T10:40:08;5.28;;;2.15;;
51020;SDS011;38907;45.562;8.856;2022-09-02T10:45:15;4.20;;;2.35;;
51020;SDS011;38907;45.562;8.856;2022-09-02T10:50:25;3.42;;;1.73;;
51020;SDS011;38907;45.562;8.856;2022-09-02T10:55:43;3.47;;;2.28;;
51020;SDS011;38907;45.562;8.856;2022-09-02T11:00:54;7.45;;;2.05;;
51020;SDS011;38907;45.562;8.856;2022-09-02T11:06:00;3.83;;;2.65;;
51020;SDS011;38907;45.562;8.856;2022-09-02T11:11:09;3.15;;;1.90;;
51020;SDS011;38907;45.562;8.856;2022-09-02T11:16:21;3.58;;;2.10;;
51020;SDS011;38907;45.562;8.856;2022-09-02T11:21:30;2.10;;;1.90;;
51020;SDS011;38907;45.562;8.856;2022-09-02T11:26:44;3.45;;;2.30;;
51020;SDS011;38907;45.562;8.856;2022-09-02T11:36:58;2.20;;;2.00;;
51020;SDS011;38907;45.562;8.856;2022-09-02T11:42:07;8.50;;;2.22;;
51020;SDS011;38907;45.562;8.856;2022-09-02T11:47:22;6.70;;;3.08;;
51020;SDS011;38907;45.562;8.856;2022-09-02T11:52:45;5.40;;;2.42;;
51020;SDS011;38907;45.562;8.856;2022-09-02T11:57:59;3.55;;;2.20;;
51020;SDS011;38907;45.562;8.856;2022-09-02T12:03:11;3.65;;;2.00;;
51020;SDS011;38907;45.562;8.856;2022-09-02T12:14:01;3.75;;;2.38;;
51020;SDS011;38907;45.562;8.856;2022-09-02T12:24:47;2.22;;;2.03;;
51020;SDS011;38907;45.562;8.856;2022-09-02T12:29:52;3.17;;;2.40;;
51020;SDS011;38907;45.562;8.856;2022-09-02T12:35:06;2.42;;;2.15;;
51020;SDS011;38907;45.562;8.856;2022-09-02T12:40:12;6.60;;;2.90;;
51020;SDS011;38907;45.562;8.856;2022-09-02T12:45:23;5.13;;;2.75;;
51020;SDS011;38907;45.562;8.856;2022-09-02T12:50:28;4.10;;;2.58;;
51020;SDS011;38907;45.562;8.856;2022-09-02T12:55:35;3.53;;;2.25;;
51020;SDS011;38907;45.562;8.856;2022-09-02T13:00:45;2.40;;;2.20;;
51020;SDS011;38907;45.562;8.856;2022-09-02T13:06:00;7.03;;;2.80;;
51020;SDS011;38907;45.562;8.856;2022-09-02T13:11:24;5.00;;;2.42;;
51020;SDS011;38907;45.562;8.856;2022-09-02T13:17:07;5.00;;;2.40;;
51020;SDS011;38907;45.562;8.856;2022-09-02T13:22:36;6.07;;;2.78;;
51020;SDS011;38907;45.562;8.856;2022-09-02T13:27:55;4.68;;;2.45;;
51020;SDS011;38907;45.562;8.856;2022-09-02T13:33:19;6.30;;;2.38;;
51020;SDS011;38907;45.562;8.856;2022-09-02T13:38:23;3.92;;;2.85;;
51020;SDS011;38907;45.562;8.856;2022-09-02T13:43:26;6.00;;;3.17;;
51020;SDS011;38907;45.562;8.856;2022-09-02T13:48:31;8.40;;;3.08;;
51020;SDS011;38907;45.562;8.856;2022-09-02T13:53:35;4.03;;;2.80;;
51020;SDS011;38907;45.562;8.856;2022-09-02T13:58:40;7.82;;;3.30;;
51020;SDS011;38907;45.562;8.856;2022-09-02T14:03:48;4.65;;;3.03;;
51020;SDS011;38907;45.562;8.856;2022-09-02T14:08:53;4.72;;;2.90;;
51020;SDS011;38907;45.562;8.856;2022-09-02T14:13:59;4.78;;;2.75;;
51020;SDS011;38907;45.562;8.856;2022-09-02T14:19:04;4.72;;;2.85;;
51020;SDS011;38907;45.562;8.856;2022-09-02T14:24:10;6.57;;;3.30;;
51020;SDS011;38907;45.562;8.856;2022-09-02T14:29:18;2.72;;;2.50;;
51020;SDS011;38907;45.562;8.856;2022-09-02T14:34:33;2.30;;;2.00;;
51020;SDS011;38907;45.562;8.856;2022-09-02T14:39:39;6.05;;;3.22;;
51020;SDS011;38907;45.562;8.856;2022-09-02T14:45:03;8.00;;;2.50;;
51020;SDS011;38907;45.562;8.856;2022-09-02T14:50:10;11.00;;;2.63;;
51020;SDS011;38907;45.562;8.856;2022-09-02T15:00:46;6.07;;;3.35;;
51020;SDS011;38907;45.562;8.856;2022-09-02T15:05:52;8.43;;;3.75;;
51020;SDS011;38907;45.562;8.856;2022-09-02T15:10:57;10.02;;;2.80;;
51020;SDS011;38907;45.562;8.856;2022-09-02T15:16:00;5.82;;;2.88;;
51020;SDS011;38907;45.562;8.856;2022-09-02T15:21:05;5.40;;;2.50;;
51020;SDS011;38907;45.562;8.856;2022-09-02T15:26:08;5.00;;;2.47;;
51020;SDS011;38907;45.562;8.856;2022-09-02T15:31:11;6.28;;;2.53;;
51020;SDS011;38907;45.562;8.856;2022-09-02T15:36:16;4.18;;;2.70;;
51020;SDS011;38907;45.562;8.856;2022-09-02T15:41:21;4.18;;;2.78;;
51020;SDS011;38907;45.562;8.856;2022-09-02T15:46:26;3.53;;;2.90;;
51020;SDS011;38907;45.562;8.856;2022-09-02T15:51:31;4.65;;;2.70;;
51020;SDS011;38907;45.562;8.856;2022-09-02T15:56:35;3.25;;;2.95;;
51020;SDS011;38907;45.562;8.856;2022-09-02T16:01:40;6.07;;;2.85;;
51020;SDS011;38907;45.562;8.856;2022-09-02T16:06:45;4.78;;;3.30;;
51020;SDS011;38907;45.562;8.856;2022-09-02T16:11:50;5.70;;;2.70;;
51020;SDS011;38907;45.562;8.856;2022-09-02T16:16:55;5.72;;;3.15;;
51020;SDS011;38907;45.562;8.856;2022-09-02T16:21:59;7.10;;;2.92;;
51020;SDS011;38907;45.562;8.856;2022-09-02T16:27:04;3.67;;;2.63;;
51020;SDS011;38907;45.562;8.856;2022-09-02T16:32:06;12.45;;;3.90;;
51020;SDS011;38907;45.562;8.856;2022-09-02T16:37:10;4.50;;;3.40;;
51020;SDS011;38907;45.562;8.856;2022-09-02T16:42:13;4.53;;;3.35;;
51020;SDS011;38907;45.562;8.856;2022-09-02T16:47:16;4.60;;;3.58;;
51020;SDS011;38907;45.562;8.856;2022-09-02T16:52:20;5.68;;;3.33;;
51020;SDS011;38907;45.562;8.856;2022-09-02T16:57:22;5.43;;;3.80;;
51020;SDS011;38907;45.562;8.856;2022-09-02T17:02:25;10.23;;;3.67;;
51020;SDS011;38907;45.562;8.856;2022-09-02T17:07:30;5.15;;;3.55;;
51020;SDS011;38907;45.562;8.856;2022-09-02T17:12:33;4.22;;;3.83;;
51020;SDS011;38907;45.562;8.856;2022-09-02T17:17:36;4.78;;;3.47;;
51020;SDS011;38907;45.562;8.856;2022-09-02T17:22:40;3.80;;;3.45;;
51020;SDS011;38907;45.562;8.856;2022-09-02T17:27:43;3.88;;;3.50;;
51020;SDS011;38907;45.562;8.856;2022-09-02T17:32:45;4.78;;;3.63;;
51020;SDS011;38907;45.562;8.856;2022-09-02T17:37:49;3.67;;;3.25;;
51020;SDS011;38907;45.562;8.856;2022-09-02T17:42:52;7.88;;;4.22;;
51020;SDS011;38907;45.562;8.856;2022-09-02T17:47:55;7.85;;;3.80;;
51020;SDS011;38907;45.562;8.856;2022-09-02T17:52:59;6.72;;;4.38;;
51020;SDS011;38907;45.562;8.856;2022-09-02T17:58:02;3.85;;;3.55;;
51020;SDS011;38907;45.562;8.856;2022-09-02T18:03:22;6.90;;;3.67;;
51020;SDS011;38907;45.562;8.856;2022-09-02T18:08:41;6.40;;;3.78;;
51020;SDS011;38907;45.562;8.856;2022-09-02T18:13:51;5.60;;;3.88;;
51020;SDS011;38907;45.562;8.856;2022-09-02T18:19:05;5.07;;;4.00;;
51020;SDS011;38907;45.562;8.856;2022-09-02T18:24:15;9.82;;;4.05;;
51020;SDS011;38907;45.562;8.856;2022-09-02T18:34:37;8.48;;;4.13;;
51020;SDS011;38907;45.562;8.856;2022-09-02T18:39:55;5.22;;;3.65;;
51020;SDS011;38907;45.562;8.856;2022-09-02T18:45:14;4.63;;;4.15;;
51020;SDS011;38907;45.562;8.856;2022-09-02T18:50:22;8.45;;;4.18;;
51020;SDS011;38907;45.562;8.856;2022-09-02T18:55:31;5.25;;;4.47;;
51020;SDS011;38907;45.562;8.856;2022-09-02T19:00:40;6.03;;;4.85;;
51020;SDS011;38907;45.562;8.856;2022-09-02T19:05:48;7.32;;;5.05;;
51020;SDS011;38907;45.562;8.856;2022-09-02T19:10:53;6.25;;;5.32;;
51020;SDS011;38907;45.562;8.856;2022-09-02T19:16:01;10.98;;;5.50;;
51020;SDS011;38907;45.562;8.856;2022-09-02T19:21:04;9.52;;;5.55;;
51020;SDS011;38907;45.562;8.856;2022-09-02T19:26:08;7.03;;;5.00;;
51020;SDS011;38907;45.562;8.856;2022-09-02T19:31:13;7.65;;;4.55;;
51020;SDS011;38907;45.562;8.856;2022-09-02T19:36:20;8.40;;;5.22;;
51020;SDS011;38907;45.562;8.856;2022-09-02T19:41:27;5.78;;;4.88;;
51020;SDS011;38907;45.562;8.856;2022-09-02T19:46:30;7.20;;;5.20;;
51020;SDS011;38907;45.562;8.856;2022-09-02T19:51:33;5.00;;;4.47;;
51020;SDS011;38907;45.562;8.856;2022-09-02T19:56:37;5.75;;;4.40;;
51020;SDS011;38907;45.562;8.856;2022-09-02T20:01:40;7.15;;;5.07;;
51020;SDS011;38907;45.562;8.856;2022-09-02T20:06:42;11.20;;;5.70;;
51020;SDS011;38907;45.562;8.856;2022-09-02T20:11:46;11.30;;;6.95;;
51020;SDS011;38907;45.562;8.856;2022-09-02T20:16:51;8.95;;;5.40;;
51020;SDS011;38907;45.562;8.856;2022-09-02T20:21:57;7.70;;;5.70;;
51020;SDS011;38907;45.562;8.856;2022-09-02T20:32:26;11.15;;;5.78;;
51020;SDS011;38907;45.562;8.856;2022-09-02T20:37:44;10.15;;;6.75;;
51020;SDS011;38907;45.562;8.856;2022-09-02T20:43:07;9.60;;;5.80;;
51020;SDS011;38907;45.562;8.856;2022-09-02T20:48:34;8.27;;;6.28;;
51020;SDS011;38907;45.562;8.856;2022-09-02T20:53:55;8.90;;;5.78;;
51020;SDS011;38907;45.562;8.856;2022-09-02T20:59:14;10.27;;;6.00;;
51020;SDS011;38907;45.562;8.856;2022-09-02T21:04:26;11.80;;;6.50;;
51020;SDS011;38907;45.562;8.856;2022-09-02T21:09:38;9.38;;;7.13;;
51020;SDS011;38907;45.562;8.856;2022-09-02T21:14:47;9.95;;;6.75;;
51020;SDS011;38907;45.562;8.856;2022-09-02T21:19:57;12.20;;;6.97;;
51020;SDS011;38907;45.562;8.856;2022-09-02T21:25:08;7.70;;;7.00;;
51020;SDS011;38907;45.562;8.856;2022-09-02T21:30:18;8.50;;;7.72;;
51020;SDS011;38907;45.562;8.856;2022-09-02T21:35:23;8.38;;;7.47;;
51020;SDS011;38907;45.562;8.856;2022-09-02T21:40:31;9.00;;;7.13;;
51020;SDS011;38907;45.562;8.856;2022-09-02T21:45:47;7.88;;;6.82;;
51020;SDS011;38907;45.562;8.856;2022-09-02T21:50:57;8.88;;;7.38;;
51020;SDS011;38907;45.562;8.856;2022-09-02T21:56:10;15.27;;;7.38;;
51020;SDS011;38907;45.562;8.856;2022-09-02T22:01:31;8.20;;;6.78;;
51020;SDS011;38907;45.562;8.856;2022-09-02T22:06:41;8.85;;;6.28;;
51020;SDS011;38907;45.562;8.856;2022-09-02T22:11:46;7.63;;;6.35;;
51020;SDS011;38907;45.562;8.856;2022-09-02T22:16:58;7.97;;;7.18;;
51020;SDS011;38907;45.562;8.856;2022-09-02T22:22:07;8.85;;;7.18;;
51020;SDS011;38907;45.562;8.856;2022-09-02T22:27:13;8.30;;;6.82;;
51020;SDS011;38907;45.562;8.856;2022-09-02T22:32:20;9.43;;;7.55;;
51020;SDS011;38907;45.562;8.856;2022-09-02T22:37:27;11.25;;;7.03;;
51020;SDS011;38907;45.562;8.856;2022-09-02T22:42:38;10.23;;;6.93;;
51020;SDS011;38907;45.562;8.856;2022-09-02T22:47:46;9.15;;;7.95;;
51020;SDS011;38907;45.562;8.856;2022-09-02T22:53:09;13.75;;;7.75;;
51020;SDS011;38907;45.562;8.856;2022-09-02T22:58:20;8.18;;;7.38;;
51020;SDS011;38907;45.562;8.856;2022-09-02T23:03:36;14.10;;;8.05;;
51020;SDS011;38907;45.562;8.856;2022-09-02T23:08:43;9.02;;;7.85;;
51020;SDS011;38907;45.562;8.856;2022-09-02T23:13:50;10.35;;;7.90;;
51020;SDS011;38907;45.562;8.856;2022-09-02T23:19:09;8.80;;;7.53;;
51020;SDS011;38907;45.562;8.856;2022-09-02T23:24:21;11.35;;;7.93;;
51020;SDS011;38907;45.562;8.856;2022-09-02T23:29:32;10.40;;;7.55;;
51020;SDS011;38907;45.562;8.856;2022-09-02T23:34:42;13.55;;;8.18;;
51020;SDS011;38907;45.562;8.856;2022-09-02T23:39:58;11.48;;;8.80;;
51020;SDS011;38907;45.562;8.856;2022-09-02T23:45:13;10.88;;;8.60;;
51020;SDS011;38907;45.562;8.856;2022-09-02T23:50:23;11.85;;;8.48;;
51020;SDS011;38907;45.562;8.856;2022-09-02T23:55:36;13.30;;;7.53;;
